Search for airport 
image banner adimage banner adimage banner ad
image banner ad

6P7 - Mcville

Located in Freeport, United States

ICAO - 6P7, IATA -

Data provided by Airmate  

General information

Coordinates: N40°44'4" W79°35'44"
Elevation is 1105 feet MSL.
Magnetic variation is -10° East
View others Airports in Pennsylvania

Operational data

Special qualification required
Current time UTC:
Current local time:
METAR: KBTP 091356Z AUTO 11006KT 5SM RA BR OVC020 04/03 A3002 RMK AO2 SLP180 T00440028 PNO $
View NOTAMs / SUP AIP / TFR affecting this airport [VIEW]
Communications frequencies: [VIEW]

Runways:

RWY identifierQFULength (ft)Width (ft)SurfaceLDA (ft)
14135°280060ASPH
32315°280060ASPH

Airport contact information

Address: Freeport United States

Other aviation service providers

Flight schools

Armstrong Aviation Services

Armstrong Aviation Services

Satellite view of 6P7